You are listening to:
EHGG Approach - Groningen, Netherlands

EHGG 011355Z AUTO 06009KT 030V090 9999 NCD 08/04 Q1034 NOSIG

If stream doesn't start automatically press the play button
If stream stops then reload player then press play